sensor_id;sensor_type;location;lat;lon;timestamp;P1;durP1;ratioP1;P2;durP2;ratioP2
5585;SDS011;2815;54.094;12.112;2023-10-19T00:01:29;3.63;;;2.17;;
5585;SDS011;2815;54.094;12.112;2023-10-19T00:04:02;5.70;;;2.40;;
5585;SDS011;2815;54.094;12.112;2023-10-19T00:06:29;2.58;;;1.20;;
5585;SDS011;2815;54.094;12.112;2023-10-19T00:08:59;4.40;;;2.47;;
5585;SDS011;2815;54.094;12.112;2023-10-19T00:11:28;3.80;;;2.17;;
5585;SDS011;2815;54.094;12.112;2023-10-19T00:13:58;5.38;;;2.35;;
5585;SDS011;2815;54.094;12.112;2023-10-19T00:16:33;4.80;;;1.90;;
5585;SDS011;2815;54.094;12.112;2023-10-19T00:19:05;5.22;;;2.88;;
5585;SDS011;2815;54.094;12.112;2023-10-19T00:21:35;6.20;;;2.33;;
5585;SDS011;2815;54.094;12.112;2023-10-19T00:24:17;5.80;;;2.13;;
5585;SDS011;2815;54.094;12.112;2023-10-19T00:26:49;7.13;;;2.20;;
5585;SDS011;2815;54.094;12.112;2023-10-19T00:29:21;3.97;;;2.35;;
5585;SDS011;2815;54.094;12.112;2023-10-19T00:32:04;3.17;;;2.33;;
5585;SDS011;2815;54.094;12.112;2023-10-19T00:34:40;3.92;;;2.25;;
5585;SDS011;2815;54.094;12.112;2023-10-19T00:37:17;4.82;;;2.70;;
5585;SDS011;2815;54.094;12.112;2023-10-19T00:39:53;7.07;;;2.35;;
5585;SDS011;2815;54.094;12.112;2023-10-19T00:42:24;3.25;;;1.83;;
5585;SDS011;2815;54.094;12.112;2023-10-19T00:44:58;2.13;;;1.40;;
5585;SDS011;2815;54.094;12.112;2023-10-19T00:47:34;7.05;;;1.45;;
5585;SDS011;2815;54.094;12.112;2023-10-19T00:50:07;4.65;;;2.50;;
5585;SDS011;2815;54.094;12.112;2023-10-19T00:52:44;2.85;;;2.03;;
5585;SDS011;2815;54.094;12.112;2023-10-19T00:55:18;2.42;;;1.98;;
5585;SDS011;2815;54.094;12.112;2023-10-19T00:57:48;5.47;;;2.03;;
5585;SDS011;2815;54.094;12.112;2023-10-19T01:00:17;3.75;;;2.10;;
5585;SDS011;2815;54.094;12.112;2023-10-19T01:02:59;4.60;;;2.35;;
5585;SDS011;2815;54.094;12.112;2023-10-19T01:05:32;4.35;;;2.55;;
5585;SDS011;2815;54.094;12.112;2023-10-19T01:08:04;4.90;;;2.22;;
5585;SDS011;2815;54.094;12.112;2023-10-19T01:10:46;7.38;;;2.92;;
5585;SDS011;2815;54.094;12.112;2023-10-19T01:13:20;4.32;;;2.35;;
5585;SDS011;2815;54.094;12.112;2023-10-19T01:15:56;5.85;;;1.95;;
5585;SDS011;2815;54.094;12.112;2023-10-19T01:18:27;2.92;;;2.10;;
5585;SDS011;2815;54.094;12.112;2023-10-19T01:21:00;4.03;;;2.10;;
5585;SDS011;2815;54.094;12.112;2023-10-19T01:23:36;9.02;;;2.80;;
5585;SDS011;2815;54.094;12.112;2023-10-19T01:26:07;6.82;;;2.83;;
5585;SDS011;2815;54.094;12.112;2023-10-19T01:28:37;3.72;;;2.22;;
5585;SDS011;2815;54.094;12.112;2023-10-19T01:31:17;5.22;;;1.65;;
5585;SDS011;2815;54.094;12.112;2023-10-19T01:33:59;5.65;;;2.40;;
5585;SDS011;2815;54.094;12.112;2023-10-19T01:36:33;7.15;;;2.78;;
5585;SDS011;2815;54.094;12.112;2023-10-19T01:39:10;4.38;;;2.60;;
5585;SDS011;2815;54.094;12.112;2023-10-19T01:41:41;4.88;;;1.92;;
5585;SDS011;2815;54.094;12.112;2023-10-19T01:44:11;7.80;;;2.78;;
5585;SDS011;2815;54.094;12.112;2023-10-19T01:46:41;3.03;;;1.65;;
5585;SDS011;2815;54.094;12.112;2023-10-19T01:49:10;6.20;;;2.33;;
5585;SDS011;2815;54.094;12.112;2023-10-19T01:51:38;3.38;;;2.13;;
5585;SDS011;2815;54.094;12.112;2023-10-19T01:54:12;5.35;;;2.33;;
5585;SDS011;2815;54.094;12.112;2023-10-19T01:56:44;2.93;;;1.97;;
5585;SDS011;2815;54.094;12.112;2023-10-19T01:59:13;4.60;;;2.88;;
5585;SDS011;2815;54.094;12.112;2023-10-19T02:01:42;4.93;;;2.45;;
5585;SDS011;2815;54.094;12.112;2023-10-19T02:04:13;1.65;;;1.42;;
5585;SDS011;2815;54.094;12.112;2023-10-19T02:06:43;5.82;;;2.40;;
5585;SDS011;2815;54.094;12.112;2023-10-19T02:09:14;5.80;;;2.70;;
5585;SDS011;2815;54.094;12.112;2023-10-19T02:11:51;5.70;;;2.13;;
5585;SDS011;2815;54.094;12.112;2023-10-19T02:14:22;4.07;;;2.15;;
5585;SDS011;2815;54.094;12.112;2023-10-19T02:16:53;4.35;;;2.00;;
5585;SDS011;2815;54.094;12.112;2023-10-19T02:19:24;19.88;;;2.60;;
5585;SDS011;2815;54.094;12.112;2023-10-19T02:21:54;6.20;;;2.45;;
5585;SDS011;2815;54.094;12.112;2023-10-19T02:24:26;2.95;;;2.05;;
5585;SDS011;2815;54.094;12.112;2023-10-19T02:26:55;5.68;;;2.38;;
5585;SDS011;2815;54.094;12.112;2023-10-19T02:29:23;5.97;;;2.47;;
5585;SDS011;2815;54.094;12.112;2023-10-19T02:31:54;6.85;;;2.97;;
5585;SDS011;2815;54.094;12.112;2023-10-19T02:34:23;4.72;;;1.67;;
5585;SDS011;2815;54.094;12.112;2023-10-19T02:36:54;3.55;;;2.50;;
5585;SDS011;2815;54.094;12.112;2023-10-19T02:39:29;5.38;;;2.55;;
5585;SDS011;2815;54.094;12.112;2023-10-19T02:41:57;5.65;;;2.55;;
5585;SDS011;2815;54.094;12.112;2023-10-19T02:44:27;6.47;;;2.90;;
5585;SDS011;2815;54.094;12.112;2023-10-19T02:46:59;4.13;;;1.92;;
5585;SDS011;2815;54.094;12.112;2023-10-19T02:49:32;3.28;;;2.30;;
5585;SDS011;2815;54.094;12.112;2023-10-19T02:52:05;4.28;;;1.60;;
5585;SDS011;2815;54.094;12.112;2023-10-19T02:54:35;5.07;;;1.80;;
5585;SDS011;2815;54.094;12.112;2023-10-19T02:57:03;3.13;;;1.98;;
5585;SDS011;2815;54.094;12.112;2023-10-19T02:59:34;3.22;;;1.80;;
5585;SDS011;2815;54.094;12.112;2023-10-19T03:02:02;4.55;;;2.03;;
5585;SDS011;2815;54.094;12.112;2023-10-19T03:04:42;3.95;;;2.30;;
5585;SDS011;2815;54.094;12.112;2023-10-19T03:07:10;3.47;;;1.70;;
5585;SDS011;2815;54.094;12.112;2023-10-19T03:09:41;3.10;;;1.83;;
5585;SDS011;2815;54.094;12.112;2023-10-19T03:12:16;4.03;;;1.95;;
5585;SDS011;2815;54.094;12.112;2023-10-19T03:14:46;5.10;;;2.13;;
5585;SDS011;2815;54.094;12.112;2023-10-19T03:17:14;2.38;;;1.55;;
5585;SDS011;2815;54.094;12.112;2023-10-19T03:19:43;8.20;;;2.58;;
5585;SDS011;2815;54.094;12.112;2023-10-19T03:22:11;6.50;;;2.53;;
5585;SDS011;2815;54.094;12.112;2023-10-19T03:24:43;3.25;;;2.20;;
5585;SDS011;2815;54.094;12.112;2023-10-19T03:27:11;6.28;;;1.90;;
5585;SDS011;2815;54.094;12.112;2023-10-19T03:29:51;3.22;;;2.10;;
5585;SDS011;2815;54.094;12.112;2023-10-19T03:32:22;4.00;;;2.25;;
5585;SDS011;2815;54.094;12.112;2023-10-19T03:34:53;3.50;;;1.85;;
5585;SDS011;2815;54.094;12.112;2023-10-19T03:37:23;2.78;;;1.73;;
5585;SDS011;2815;54.094;12.112;2023-10-19T03:39:58;2.28;;;1.98;;
5585;SDS011;2815;54.094;12.112;2023-10-19T03:42:32;4.22;;;1.70;;
5585;SDS011;2815;54.094;12.112;2023-10-19T03:45:08;3.35;;;1.95;;
5585;SDS011;2815;54.094;12.112;2023-10-19T03:47:39;1.73;;;1.38;;
5585;SDS011;2815;54.094;12.112;2023-10-19T03:50:11;2.72;;;1.85;;
5585;SDS011;2815;54.094;12.112;2023-10-19T03:52:47;6.20;;;2.15;;
5585;SDS011;2815;54.094;12.112;2023-10-19T03:55:17;4.22;;;1.88;;
5585;SDS011;2815;54.094;12.112;2023-10-19T03:57:46;4.70;;;2.67;;
5585;SDS011;2815;54.094;12.112;2023-10-19T04:00:17;7.53;;;1.77;;
5585;SDS011;2815;54.094;12.112;2023-10-19T04:02:52;3.05;;;1.38;;
5585;SDS011;2815;54.094;12.112;2023-10-19T04:05:24;3.03;;;1.77;;
5585;SDS011;2815;54.094;12.112;2023-10-19T04:07:55;3.75;;;2.22;;
5585;SDS011;2815;54.094;12.112;2023-10-19T04:10:26;3.20;;;1.58;;
5585;SDS011;2815;54.094;12.112;2023-10-19T04:13:11;4.88;;;1.75;;
5585;SDS011;2815;54.094;12.112;2023-10-19T04:15:41;3.55;;;2.22;;
5585;SDS011;2815;54.094;12.112;2023-10-19T04:18:09;2.38;;;1.60;;
5585;SDS011;2815;54.094;12.112;2023-10-19T04:20:39;2.92;;;1.88;;
5585;SDS011;2815;54.094;12.112;2023-10-19T04:23:23;2.15;;;1.30;;
5585;SDS011;2815;54.094;12.112;2023-10-19T04:25:56;3.55;;;1.67;;
5585;SDS011;2815;54.094;12.112;2023-10-19T04:28:25;7.13;;;1.98;;
5585;SDS011;2815;54.094;12.112;2023-10-19T04:31:05;4.75;;;1.70;;
5585;SDS011;2815;54.094;12.112;2023-10-19T04:33:34;5.07;;;1.95;;
5585;SDS011;2815;54.094;12.112;2023-10-19T04:36:06;8.07;;;2.33;;
5585;SDS011;2815;54.094;12.112;2023-10-19T04:38:38;6.03;;;2.23;;
5585;SDS011;2815;54.094;12.112;2023-10-19T04:41:08;2.05;;;1.50;;
5585;SDS011;2815;54.094;12.112;2023-10-19T04:43:41;3.60;;;1.77;;
5585;SDS011;2815;54.094;12.112;2023-10-19T04:46:17;2.35;;;1.27;;
5585;SDS011;2815;54.094;12.112;2023-10-19T04:48:48;3.90;;;1.63;;
5585;SDS011;2815;54.094;12.112;2023-10-19T04:51:17;2.58;;;1.40;;
5585;SDS011;2815;54.094;12.112;2023-10-19T04:53:45;4.82;;;1.60;;
5585;SDS011;2815;54.094;12.112;2023-10-19T04:56:19;7.20;;;2.25;;
5585;SDS011;2815;54.094;12.112;2023-10-19T04:58:49;2.97;;;1.70;;
5585;SDS011;2815;54.094;12.112;2023-10-19T05:01:17;8.95;;;1.90;;
5585;SDS011;2815;54.094;12.112;2023-10-19T05:03:50;6.40;;;2.03;;
5585;SDS011;2815;54.094;12.112;2023-10-19T05:06:19;5.47;;;1.83;;
5585;SDS011;2815;54.094;12.112;2023-10-19T05:08:50;3.72;;;2.00;;
5585;SDS011;2815;54.094;12.112;2023-10-19T05:11:21;5.03;;;1.83;;
5585;SDS011;2815;54.094;12.112;2023-10-19T05:13:49;11.32;;;2.15;;
5585;SDS011;2815;54.094;12.112;2023-10-19T05:16:18;2.15;;;1.55;;
5585;SDS011;2815;54.094;12.112;2023-10-19T05:18:47;4.78;;;1.95;;
5585;SDS011;2815;54.094;12.112;2023-10-19T05:21:16;6.97;;;1.80;;
5585;SDS011;2815;54.094;12.112;2023-10-19T05:23:45;3.38;;;2.03;;
5585;SDS011;2815;54.094;12.112;2023-10-19T05:26:17;7.25;;;2.08;;
5585;SDS011;2815;54.094;12.112;2023-10-19T05:28:49;3.47;;;2.15;;
5585;SDS011;2815;54.094;12.112;2023-10-19T05:33:47;4.18;;;2.05;;
5585;SDS011;2815;54.094;12.112;2023-10-19T05:36:16;3.65;;;2.20;;
5585;SDS011;2815;54.094;12.112;2023-10-19T05:38:45;5.95;;;2.08;;
5585;SDS011;2815;54.094;12.112;2023-10-19T05:41:14;4.38;;;1.48;;
5585;SDS011;2815;54.094;12.112;2023-10-19T05:43:44;4.35;;;2.50;;
5585;SDS011;2815;54.094;12.112;2023-10-19T05:46:15;3.25;;;2.35;;
5585;SDS011;2815;54.094;12.112;2023-10-19T05:48:45;7.07;;;3.15;;
5585;SDS011;2815;54.094;12.112;2023-10-19T05:51:14;5.22;;;2.78;;
5585;SDS011;2815;54.094;12.112;2023-10-19T05:53:42;6.75;;;2.72;;
5585;SDS011;2815;54.094;12.112;2023-10-19T05:56:11;2.80;;;1.95;;
5585;SDS011;2815;54.094;12.112;2023-10-19T05:58:40;5.28;;;3.10;;
5585;SDS011;2815;54.094;12.112;2023-10-19T06:01:08;4.88;;;2.42;;
5585;SDS011;2815;54.094;12.112;2023-10-19T06:03:39;6.15;;;2.53;;
5585;SDS011;2815;54.094;12.112;2023-10-19T06:06:07;6.30;;;3.22;;
5585;SDS011;2815;54.094;12.112;2023-10-19T06:08:36;6.78;;;3.17;;
5585;SDS011;2815;54.094;12.112;2023-10-19T06:11:04;7.75;;;2.95;;
5585;SDS011;2815;54.094;12.112;2023-10-19T06:13:34;5.13;;;2.85;;
5585;SDS011;2815;54.094;12.112;2023-10-19T06:16:03;9.48;;;2.58;;
5585;SDS011;2815;54.094;12.112;2023-10-19T06:18:32;5.22;;;2.88;;
5585;SDS011;2815;54.094;12.112;2023-10-19T06:21:03;9.38;;;3.00;;
5585;SDS011;2815;54.094;12.112;2023-10-19T06:23:32;4.05;;;2.60;;
5585;SDS011;2815;54.094;12.112;2023-10-19T06:26:00;8.30;;;2.92;;
5585;SDS011;2815;54.094;12.112;2023-10-19T06:28:38;6.50;;;3.30;;
5585;SDS011;2815;54.094;12.112;2023-10-19T06:31:09;5.43;;;2.80;;
5585;SDS011;2815;54.094;12.112;2023-10-19T06:33:38;4.88;;;2.17;;
5585;SDS011;2815;54.094;12.112;2023-10-19T06:36:10;5.25;;;3.50;;
5585;SDS011;2815;54.094;12.112;2023-10-19T06:38:41;3.38;;;2.50;;
5585;SDS011;2815;54.094;12.112;2023-10-19T06:41:11;3.95;;;2.13;;
5585;SDS011;2815;54.094;12.112;2023-10-19T06:43:45;6.88;;;3.33;;
5585;SDS011;2815;54.094;12.112;2023-10-19T06:46:14;6.00;;;3.40;;
5585;SDS011;2815;54.094;12.112;2023-10-19T06:48:42;3.90;;;2.45;;
5585;SDS011;2815;54.094;12.112;2023-10-19T06:51:15;5.32;;;3.00;;
5585;SDS011;2815;54.094;12.112;2023-10-19T06:53:45;3.80;;;2.42;;
5585;SDS011;2815;54.094;12.112;2023-10-19T06:56:14;5.90;;;3.28;;
5585;SDS011;2815;54.094;12.112;2023-10-19T06:58:42;4.75;;;3.22;;
5585;SDS011;2815;54.094;12.112;2023-10-19T07:01:13;5.95;;;3.05;;
5585;SDS011;2815;54.094;12.112;2023-10-19T07:03:45;7.07;;;3.25;;
5585;SDS011;2815;54.094;12.112;2023-10-19T07:06:13;5.75;;;3.72;;
5585;SDS011;2815;54.094;12.112;2023-10-19T07:08:43;6.63;;;3.80;;
5585;SDS011;2815;54.094;12.112;2023-10-19T07:11:13;4.40;;;2.50;;
5585;SDS011;2815;54.094;12.112;2023-10-19T07:13:42;4.40;;;2.20;;
5585;SDS011;2815;54.094;12.112;2023-10-19T07:16:11;7.45;;;3.10;;
5585;SDS011;2815;54.094;12.112;2023-10-19T07:18:40;6.53;;;3.60;;
5585;SDS011;2815;54.094;12.112;2023-10-19T07:21:08;6.50;;;3.17;;
5585;SDS011;2815;54.094;12.112;2023-10-19T07:23:43;4.38;;;2.90;;
5585;SDS011;2815;54.094;12.112;2023-10-19T07:26:13;4.75;;;3.05;;
5585;SDS011;2815;54.094;12.112;2023-10-19T07:28:42;6.75;;;3.75;;
5585;SDS011;2815;54.094;12.112;2023-10-19T07:31:11;7.68;;;3.17;;
5585;SDS011;2815;54.094;12.112;2023-10-19T07:33:42;10.40;;;5.38;;
5585;SDS011;2815;54.094;12.112;2023-10-19T07:36:13;11.45;;;4.07;;
5585;SDS011;2815;54.094;12.112;2023-10-19T07:38:44;7.57;;;3.75;;
5585;SDS011;2815;54.094;12.112;2023-10-19T07:41:14;9.52;;;4.40;;
5585;SDS011;2815;54.094;12.112;2023-10-19T07:43:45;5.10;;;2.53;;
5585;SDS011;2815;54.094;12.112;2023-10-19T07:46:15;4.93;;;3.30;;
5585;SDS011;2815;54.094;12.112;2023-10-19T07:48:44;4.00;;;2.75;;
5585;SDS011;2815;54.094;12.112;2023-10-19T07:51:12;4.88;;;3.53;;
5585;SDS011;2815;54.094;12.112;2023-10-19T07:53:40;5.47;;;3.25;;
5585;SDS011;2815;54.094;12.112;2023-10-19T07:56:12;5.82;;;2.85;;
5585;SDS011;2815;54.094;12.112;2023-10-19T07:58:41;21.83;;;4.35;;
5585;SDS011;2815;54.094;12.112;2023-10-19T08:01:10;13.07;;;3.83;;
5585;SDS011;2815;54.094;12.112;2023-10-19T08:03:39;6.45;;;3.95;;
5585;SDS011;2815;54.094;12.112;2023-10-19T08:06:08;6.80;;;3.30;;
5585;SDS011;2815;54.094;12.112;2023-10-19T08:08:43;8.88;;;3.92;;
5585;SDS011;2815;54.094;12.112;2023-10-19T08:11:15;6.25;;;3.33;;
5585;SDS011;2815;54.094;12.112;2023-10-19T08:13:44;7.32;;;3.88;;
5585;SDS011;2815;54.094;12.112;2023-10-19T08:16:13;5.97;;;3.42;;
5585;SDS011;2815;54.094;12.112;2023-10-19T08:18:44;8.30;;;3.47;;
5585;SDS011;2815;54.094;12.112;2023-10-19T08:21:12;5.68;;;3.13;;
5585;SDS011;2815;54.094;12.112;2023-10-19T08:23:40;10.15;;;4.60;;
5585;SDS011;2815;54.094;12.112;2023-10-19T08:26:09;10.73;;;3.22;;
5585;SDS011;2815;54.094;12.112;2023-10-19T08:28:39;6.82;;;4.38;;
5585;SDS011;2815;54.094;12.112;2023-10-19T08:31:08;4.97;;;3.38;;
5585;SDS011;2815;54.094;12.112;2023-10-19T08:33:38;10.57;;;4.47;;
5585;SDS011;2815;54.094;12.112;2023-10-19T08:36:15;6.63;;;3.20;;
5585;SDS011;2815;54.094;12.112;2023-10-19T08:38:46;11.07;;;5.00;;
5585;SDS011;2815;54.094;12.112;2023-10-19T08:41:15;6.88;;;4.10;;
5585;SDS011;2815;54.094;12.112;2023-10-19T08:43:45;3.80;;;2.38;;
5585;SDS011;2815;54.094;12.112;2023-10-19T08:46:15;9.82;;;3.83;;
5585;SDS011;2815;54.094;12.112;2023-10-19T08:48:46;8.52;;;3.50;;
5585;SDS011;2815;54.094;12.112;2023-10-19T08:51:13;7.60;;;3.63;;
5585;SDS011;2815;54.094;12.112;2023-10-19T08:53:43;9.07;;;5.13;;
5585;SDS011;2815;54.094;12.112;2023-10-19T08:56:15;7.25;;;4.28;;
5585;SDS011;2815;54.094;12.112;2023-10-19T08:58:46;9.07;;;4.47;;
5585;SDS011;2815;54.094;12.112;2023-10-19T09:01:17;9.10;;;4.00;;
5585;SDS011;2815;54.094;12.112;2023-10-19T09:03:46;5.20;;;3.30;;
5585;SDS011;2815;54.094;12.112;2023-10-19T09:06:15;5.57;;;3.45;;
5585;SDS011;2815;54.094;12.112;2023-10-19T09:08:47;8.32;;;3.25;;
5585;SDS011;2815;54.094;12.112;2023-10-19T09:11:17;10.57;;;3.97;;
5585;SDS011;2815;54.094;12.112;2023-10-19T09:13:50;9.52;;;4.20;;
5585;SDS011;2815;54.094;12.112;2023-10-19T09:16:20;6.85;;;3.15;;
5585;SDS011;2815;54.094;12.112;2023-10-19T09:18:53;6.80;;;3.53;;
5585;SDS011;2815;54.094;12.112;2023-10-19T09:21:23;7.57;;;4.18;;
5585;SDS011;2815;54.094;12.112;2023-10-19T09:23:55;6.13;;;3.45;;
5585;SDS011;2815;54.094;12.112;2023-10-19T09:26:24;9.68;;;3.63;;
5585;SDS011;2815;54.094;12.112;2023-10-19T09:28:55;12.23;;;4.80;;
5585;SDS011;2815;54.094;12.112;2023-10-19T09:31:24;5.35;;;3.67;;
5585;SDS011;2815;54.094;12.112;2023-10-19T09:33:53;10.13;;;3.75;;
5585;SDS011;2815;54.094;12.112;2023-10-19T09:36:24;6.80;;;3.47;;
5585;SDS011;2815;54.094;12.112;2023-10-19T09:38:54;6.90;;;3.88;;
5585;SDS011;2815;54.094;12.112;2023-10-19T09:41:24;7.45;;;3.85;;
5585;SDS011;2815;54.094;12.112;2023-10-19T09:44:01;9.55;;;4.10;;
5585;SDS011;2815;54.094;12.112;2023-10-19T09:46:33;13.55;;;3.83;;
5585;SDS011;2815;54.094;12.112;2023-10-19T09:49:06;9.23;;;4.80;;
5585;SDS011;2815;54.094;12.112;2023-10-19T09:51:35;6.35;;;4.28;;
5585;SDS011;2815;54.094;12.112;2023-10-19T09:54:17;10.63;;;5.95;;
5585;SDS011;2815;54.094;12.112;2023-10-19T09:56:52;5.15;;;3.00;;
5585;SDS011;2815;54.094;12.112;2023-10-19T09:59:31;4.95;;;3.15;;
5585;SDS011;2815;54.094;12.112;2023-10-19T10:02:06;10.13;;;3.80;;
5585;SDS011;2815;54.094;12.112;2023-10-19T10:04:38;6.70;;;3.58;;
5585;SDS011;2815;54.094;12.112;2023-10-19T10:07:08;6.47;;;3.42;;
5585;SDS011;2815;54.094;12.112;2023-10-19T10:09:38;5.43;;;2.90;;
5585;SDS011;2815;54.094;12.112;2023-10-19T10:12:17;6.32;;;3.58;;
5585;SDS011;2815;54.094;12.112;2023-10-19T10:15:02;7.28;;;4.22;;
5585;SDS011;2815;54.094;12.112;2023-10-19T10:17:35;7.80;;;3.20;;
5585;SDS011;2815;54.094;12.112;2023-10-19T10:23:15;7.00;;;3.28;;
5585;SDS011;2815;54.094;12.112;2023-10-19T10:25:45;9.45;;;3.58;;
5585;SDS011;2815;54.094;12.112;2023-10-19T10:28:15;4.30;;;3.00;;
5585;SDS011;2815;54.094;12.112;2023-10-19T10:33:44;9.77;;;5.13;;
5585;SDS011;2815;54.094;12.112;2023-10-19T10:36:14;6.07;;;3.50;;
5585;SDS011;2815;54.094;12.112;2023-10-19T10:38:45;9.35;;;5.28;;
5585;SDS011;2815;54.094;12.112;2023-10-19T10:41:19;8.00;;;3.75;;
5585;SDS011;2815;54.094;12.112;2023-10-19T10:43:52;8.88;;;4.40;;
5585;SDS011;2815;54.094;12.112;2023-10-19T10:46:23;6.88;;;4.13;;
5585;SDS011;2815;54.094;12.112;2023-10-19T10:48:56;9.32;;;4.18;;
5585;SDS011;2815;54.094;12.112;2023-10-19T10:51:26;8.82;;;4.47;;
5585;SDS011;2815;54.094;12.112;2023-10-19T10:54:01;5.45;;;3.15;;
5585;SDS011;2815;54.094;12.112;2023-10-19T10:56:39;7.78;;;4.13;;
5585;SDS011;2815;54.094;12.112;2023-10-19T10:59:11;8.75;;;4.32;;
5585;SDS011;2815;54.094;12.112;2023-10-19T11:01:42;9.20;;;4.18;;
5585;SDS011;2815;54.094;12.112;2023-10-19T11:04:12;5.95;;;3.40;;
5585;SDS011;2815;54.094;12.112;2023-10-19T11:06:47;11.18;;;3.67;;
5585;SDS011;2815;54.094;12.112;2023-10-19T11:09:18;8.05;;;4.18;;
5585;SDS011;2815;54.094;12.112;2023-10-19T11:11:48;8.70;;;4.88;;
5585;SDS011;2815;54.094;12.112;2023-10-19T11:14:20;6.82;;;4.40;;
5585;SDS011;2815;54.094;12.112;2023-10-19T11:17:12;8.32;;;3.67;;
5585;SDS011;2815;54.094;12.112;2023-10-19T11:19:42;5.65;;;3.65;;
5585;SDS011;2815;54.094;12.112;2023-10-19T11:22:11;6.50;;;2.88;;
5585;SDS011;2815;54.094;12.112;2023-10-19T11:24:41;6.40;;;4.13;;
5585;SDS011;2815;54.094;12.112;2023-10-19T11:27:10;9.55;;;3.85;;
5585;SDS011;2815;54.094;12.112;2023-10-19T11:29:53;8.07;;;4.13;;
5585;SDS011;2815;54.094;12.112;2023-10-19T11:32:23;13.10;;;5.53;;
5585;SDS011;2815;54.094;12.112;2023-10-19T11:34:53;10.55;;;3.92;;
5585;SDS011;2815;54.094;12.112;2023-10-19T11:37:23;13.70;;;4.88;;
5585;SDS011;2815;54.094;12.112;2023-10-19T11:39:53;7.78;;;3.75;;
5585;SDS011;2815;54.094;12.112;2023-10-19T11:42:21;12.77;;;4.50;;
5585;SDS011;2815;54.094;12.112;2023-10-19T11:44:50;6.78;;;4.05;;
5585;SDS011;2815;54.094;12.112;2023-10-19T11:47:19;7.63;;;3.80;;
5585;SDS011;2815;54.094;12.112;2023-10-19T11:49:50;8.00;;;4.45;;
5585;SDS011;2815;54.094;12.112;2023-10-19T11:52:20;6.55;;;4.22;;
5585;SDS011;2815;54.094;12.112;2023-10-19T11:54:53;7.55;;;4.03;;
5585;SDS011;2815;54.094;12.112;2023-10-19T11:57:24;6.47;;;3.78;;
5585;SDS011;2815;54.094;12.112;2023-10-19T11:59:52;6.68;;;4.22;;
5585;SDS011;2815;54.094;12.112;2023-10-19T12:02:30;8.40;;;5.00;;
5585;SDS011;2815;54.094;12.112;2023-10-19T12:05:01;7.47;;;3.28;;
5585;SDS011;2815;54.094;12.112;2023-10-19T12:07:30;5.15;;;3.63;;
5585;SDS011;2815;54.094;12.112;2023-10-19T12:10:01;5.78;;;4.03;;
5585;SDS011;2815;54.094;12.112;2023-10-19T12:12:31;8.15;;;2.95;;
5585;SDS011;2815;54.094;12.112;2023-10-19T12:15:15;9.70;;;4.07;;
5585;SDS011;2815;54.094;12.112;2023-10-19T12:17:44;9.57;;;4.32;;
5585;SDS011;2815;54.094;12.112;2023-10-19T12:20:14;6.78;;;3.92;;
5585;SDS011;2815;54.094;12.112;2023-10-19T12:22:43;9.30;;;4.70;;
5585;SDS011;2815;54.094;12.112;2023-10-19T12:25:13;7.03;;;3.70;;
5585;SDS011;2815;54.094;12.112;2023-10-19T12:27:43;8.82;;;4.78;;
5585;SDS011;2815;54.094;12.112;2023-10-19T12:30:11;7.32;;;4.40;;
5585;SDS011;2815;54.094;12.112;2023-10-19T12:32:47;10.98;;;5.00;;
5585;SDS011;2815;54.094;12.112;2023-10-19T12:35:19;6.00;;;3.90;;
5585;SDS011;2815;54.094;12.112;2023-10-19T12:37:57;7.25;;;4.00;;
5585;SDS011;2815;54.094;12.112;2023-10-19T12:40:26;11.60;;;4.78;;
5585;SDS011;2815;54.094;12.112;2023-10-19T12:42:55;12.40;;;6.75;;
5585;SDS011;2815;54.094;12.112;2023-10-19T12:45:24;8.90;;;5.95;;
5585;SDS011;2815;54.094;12.112;2023-10-19T12:47:53;12.82;;;5.88;;
5585;SDS011;2815;54.094;12.112;2023-10-19T12:50:23;8.48;;;4.32;;
5585;SDS011;2815;54.094;12.112;2023-10-19T12:52:54;6.32;;;3.85;;
5585;SDS011;2815;54.094;12.112;2023-10-19T12:55:23;8.82;;;4.05;;
5585;SDS011;2815;54.094;12.112;2023-10-19T12:57:53;8.27;;;4.57;;
5585;SDS011;2815;54.094;12.112;2023-10-19T13:00:23;6.57;;;3.95;;
5585;SDS011;2815;54.094;12.112;2023-10-19T13:02:56;7.63;;;4.07;;
5585;SDS011;2815;54.094;12.112;2023-10-19T13:05:33;7.45;;;4.72;;
5585;SDS011;2815;54.094;12.112;2023-10-19T13:08:04;13.77;;;5.47;;
5585;SDS011;2815;54.094;12.112;2023-10-19T13:10:34;9.73;;;5.80;;
5585;SDS011;2815;54.094;12.112;2023-10-19T13:13:04;5.05;;;3.42;;
5585;SDS011;2815;54.094;12.112;2023-10-19T13:15:35;10.23;;;3.85;;
5585;SDS011;2815;54.094;12.112;2023-10-19T13:18:05;10.15;;;6.28;;
5585;SDS011;2815;54.094;12.112;2023-10-19T13:20:41;11.73;;;4.28;;
5585;SDS011;2815;54.094;12.112;2023-10-19T13:23:10;8.13;;;4.68;;
5585;SDS011;2815;54.094;12.112;2023-10-19T13:25:39;9.10;;;5.05;;
5585;SDS011;2815;54.094;12.112;2023-10-19T13:28:14;5.07;;;3.80;;
5585;SDS011;2815;54.094;12.112;2023-10-19T13:30:46;19.15;;;6.80;;
5585;SDS011;2815;54.094;12.112;2023-10-19T13:33:16;8.55;;;5.45;;
5585;SDS011;2815;54.094;12.112;2023-10-19T13:35:49;8.85;;;4.82;;
5585;SDS011;2815;54.094;12.112;2023-10-19T13:38:18;10.50;;;4.63;;
5585;SDS011;2815;54.094;12.112;2023-10-19T13:40:47;8.40;;;4.50;;
5585;SDS011;2815;54.094;12.112;2023-10-19T13:43:17;13.73;;;4.20;;
5585;SDS011;2815;54.094;12.112;2023-10-19T13:45:48;8.07;;;4.20;;
5585;SDS011;2815;54.094;12.112;2023-10-19T13:48:20;9.57;;;5.25;;
5585;SDS011;2815;54.094;12.112;2023-10-19T13:50:54;9.73;;;4.78;;
5585;SDS011;2815;54.094;12.112;2023-10-19T13:53:28;5.55;;;3.85;;
5585;SDS011;2815;54.094;12.112;2023-10-19T13:55:56;10.07;;;5.32;;
5585;SDS011;2815;54.094;12.112;2023-10-19T13:58:28;13.63;;;5.03;;
5585;SDS011;2815;54.094;12.112;2023-10-19T14:01:00;15.05;;;4.38;;
5585;SDS011;2815;54.094;12.112;2023-10-19T14:03:29;10.55;;;4.65;;
5585;SDS011;2815;54.094;12.112;2023-10-19T14:06:01;8.98;;;4.95;;
5585;SDS011;2815;54.094;12.112;2023-10-19T14:08:30;7.43;;;3.50;;
5585;SDS011;2815;54.094;12.112;2023-10-19T14:11:02;10.02;;;6.15;;
5585;SDS011;2815;54.094;12.112;2023-10-19T14:13:31;11.27;;;5.10;;
5585;SDS011;2815;54.094;12.112;2023-10-19T14:16:00;8.68;;;4.47;;
5585;SDS011;2815;54.094;12.112;2023-10-19T14:18:33;7.40;;;3.42;;
5585;SDS011;2815;54.094;12.112;2023-10-19T14:21:11;12.38;;;5.72;;
5585;SDS011;2815;54.094;12.112;2023-10-19T14:23:41;7.40;;;3.97;;
5585;SDS011;2815;54.094;12.112;2023-10-19T14:26:12;5.10;;;3.58;;
5585;SDS011;2815;54.094;12.112;2023-10-19T14:28:41;6.32;;;3.85;;
5585;SDS011;2815;54.094;12.112;2023-10-19T14:31:10;7.38;;;4.70;;
5585;SDS011;2815;54.094;12.112;2023-10-19T14:33:39;6.65;;;3.80;;
5585;SDS011;2815;54.094;12.112;2023-10-19T14:36:12;8.93;;;4.32;;
5585;SDS011;2815;54.094;12.112;2023-10-19T14:38:40;8.43;;;4.40;;
5585;SDS011;2815;54.094;12.112;2023-10-19T14:41:11;10.77;;;5.28;;
5585;SDS011;2815;54.094;12.112;2023-10-19T14:43:42;7.47;;;3.95;;
5585;SDS011;2815;54.094;12.112;2023-10-19T14:46:10;5.50;;;3.05;;
5585;SDS011;2815;54.094;12.112;2023-10-19T14:48:40;6.40;;;3.88;;
5585;SDS011;2815;54.094;12.112;2023-10-19T14:51:08;16.38;;;4.43;;
5585;SDS011;2815;54.094;12.112;2023-10-19T14:53:40;9.52;;;3.85;;
5585;SDS011;2815;54.094;12.112;2023-10-19T14:56:09;4.15;;;2.88;;
5585;SDS011;2815;54.094;12.112;2023-10-19T14:58:39;6.57;;;3.90;;
5585;SDS011;2815;54.094;12.112;2023-10-19T15:01:07;5.32;;;3.22;;
5585;SDS011;2815;54.094;12.112;2023-10-19T15:03:41;4.43;;;3.40;;
5585;SDS011;2815;54.094;12.112;2023-10-19T15:06:14;5.45;;;2.95;;
5585;SDS011;2815;54.094;12.112;2023-10-19T15:08:48;7.80;;;4.15;;
5585;SDS011;2815;54.094;12.112;2023-10-19T15:11:17;7.82;;;3.90;;
5585;SDS011;2815;54.094;12.112;2023-10-19T15:13:49;10.18;;;5.22;;
5585;SDS011;2815;54.094;12.112;2023-10-19T15:16:20;8.45;;;4.90;;
5585;SDS011;2815;54.094;12.112;2023-10-19T15:18:50;7.38;;;3.40;;
5585;SDS011;2815;54.094;12.112;2023-10-19T15:21:18;6.85;;;3.65;;
5585;SDS011;2815;54.094;12.112;2023-10-19T15:23:48;10.65;;;4.60;;
5585;SDS011;2815;54.094;12.112;2023-10-19T15:26:18;10.75;;;4.00;;
5585;SDS011;2815;54.094;12.112;2023-10-19T15:28:47;6.22;;;3.92;;
5585;SDS011;2815;54.094;12.112;2023-10-19T15:31:29;11.35;;;4.38;;
5585;SDS011;2815;54.094;12.112;2023-10-19T15:33:58;8.55;;;4.38;;